sensor_id;sensor_type;location;lat;lon;timestamp;P1;durP1;ratioP1;P2;durP2;ratioP2
20649;SDS011;10484;48.736;9.332;2023-03-15T00:02:03;1.67;;;1.33;;
20649;SDS011;10484;48.736;9.332;2023-03-15T00:04:29;1.20;;;1.10;;
20649;SDS011;10484;48.736;9.332;2023-03-15T00:06:59;2.65;;;1.67;;
20649;SDS011;10484;48.736;9.332;2023-03-15T00:09:25;1.80;;;1.30;;
20649;SDS011;10484;48.736;9.332;2023-03-15T00:11:51;1.67;;;1.57;;
20649;SDS011;10484;48.736;9.332;2023-03-15T00:14:20;1.93;;;1.70;;
20649;SDS011;10484;48.736;9.332;2023-03-15T00:16:46;2.00;;;1.60;;
20649;SDS011;10484;48.736;9.332;2023-03-15T00:19:12;3.37;;;1.83;;
20649;SDS011;10484;48.736;9.332;2023-03-15T00:21:38;1.67;;;1.40;;
20649;SDS011;10484;48.736;9.332;2023-03-15T00:24:07;2.55;;;1.77;;
20649;SDS011;10484;48.736;9.332;2023-03-15T00:26:36;7.13;;;1.47;;
20649;SDS011;10484;48.736;9.332;2023-03-15T00:29:02;2.25;;;1.80;;
20649;SDS011;10484;48.736;9.332;2023-03-15T00:31:28;2.93;;;1.80;;
20649;SDS011;10484;48.736;9.332;2023-03-15T00:33:54;2.70;;;2.17;;
20649;SDS011;10484;48.736;9.332;2023-03-15T00:36:20;2.33;;;1.77;;
20649;SDS011;10484;48.736;9.332;2023-03-15T00:38:54;3.00;;;2.10;;
20649;SDS011;10484;48.736;9.332;2023-03-15T00:41:21;4.05;;;2.60;;
20649;SDS011;10484;48.736;9.332;2023-03-15T00:43:47;3.13;;;2.70;;
20649;SDS011;10484;48.736;9.332;2023-03-15T00:46:13;2.63;;;2.25;;
20649;SDS011;10484;48.736;9.332;2023-03-15T00:48:39;4.05;;;2.60;;
20649;SDS011;10484;48.736;9.332;2023-03-15T00:53:34;3.60;;;2.50;;
20649;SDS011;10484;48.736;9.332;2023-03-15T00:56:05;4.78;;;2.88;;
20649;SDS011;10484;48.736;9.332;2023-03-15T00:58:32;2.57;;;2.37;;
20649;SDS011;10484;48.736;9.332;2023-03-15T01:00:58;4.13;;;2.57;;
20649;SDS011;10484;48.736;9.332;2023-03-15T01:03:25;3.07;;;2.10;;
20649;SDS011;10484;48.736;9.332;2023-03-15T01:05:51;2.40;;;2.20;;
20649;SDS011;10484;48.736;9.332;2023-03-15T01:08:17;6.37;;;2.70;;
20649;SDS011;10484;48.736;9.332;2023-03-15T01:10:42;5.57;;;2.40;;
20649;SDS011;10484;48.736;9.332;2023-03-15T01:13:08;5.50;;;2.93;;
20649;SDS011;10484;48.736;9.332;2023-03-15T01:15:33;2.87;;;2.10;;
20649;SDS011;10484;48.736;9.332;2023-03-15T01:17:59;6.37;;;3.03;;
20649;SDS011;10484;48.736;9.332;2023-03-15T01:20:25;5.40;;;2.63;;
20649;SDS011;10484;48.736;9.332;2023-03-15T01:22:50;3.30;;;3.00;;
20649;SDS011;10484;48.736;9.332;2023-03-15T01:25:16;2.70;;;2.50;;
20649;SDS011;10484;48.736;9.332;2023-03-15T01:27:41;3.83;;;2.90;;
20649;SDS011;10484;48.736;9.332;2023-03-15T01:30:07;4.07;;;2.97;;
20649;SDS011;10484;48.736;9.332;2023-03-15T01:32:33;4.67;;;3.03;;
20649;SDS011;10484;48.736;9.332;2023-03-15T01:34:59;5.70;;;3.20;;
20649;SDS011;10484;48.736;9.332;2023-03-15T01:37:24;3.93;;;2.57;;
20649;SDS011;10484;48.736;9.332;2023-03-15T01:39:50;4.50;;;2.80;;
20649;SDS011;10484;48.736;9.332;2023-03-15T01:42:16;4.70;;;3.30;;
20649;SDS011;10484;48.736;9.332;2023-03-15T01:47:20;6.27;;;2.90;;
20649;SDS011;10484;48.736;9.332;2023-03-15T01:49:51;14.47;;;3.00;;
20649;SDS011;10484;48.736;9.332;2023-03-15T01:52:23;7.50;;;2.90;;
20649;SDS011;10484;48.736;9.332;2023-03-15T01:54:53;5.00;;;2.92;;
20649;SDS011;10484;48.736;9.332;2023-03-15T01:57:32;3.53;;;2.40;;
20649;SDS011;10484;48.736;9.332;2023-03-15T02:00:11;4.35;;;2.70;;
20649;SDS011;10484;48.736;9.332;2023-03-15T02:02:46;7.55;;;3.15;;
20649;SDS011;10484;48.736;9.332;2023-03-15T02:05:18;4.22;;;2.60;;
20649;SDS011;10484;48.736;9.332;2023-03-15T02:07:48;4.72;;;2.20;;
20649;SDS011;10484;48.736;9.332;2023-03-15T02:10:22;3.40;;;2.33;;
20649;SDS011;10484;48.736;9.332;2023-03-15T02:12:55;2.13;;;1.73;;
20649;SDS011;10484;48.736;9.332;2023-03-15T02:15:23;9.25;;;2.15;;
20649;SDS011;10484;48.736;9.332;2023-03-15T02:17:49;6.10;;;2.30;;
20649;SDS011;10484;48.736;9.332;2023-03-15T02:22:57;3.00;;;2.00;;
20649;SDS011;10484;48.736;9.332;2023-03-15T02:25:44;3.38;;;1.70;;
20649;SDS011;10484;48.736;9.332;2023-03-15T02:28:14;3.45;;;2.03;;
20649;SDS011;10484;48.736;9.332;2023-03-15T02:30:41;3.37;;;2.10;;
20649;SDS011;10484;48.736;9.332;2023-03-15T02:33:10;2.17;;;1.80;;
20649;SDS011;10484;48.736;9.332;2023-03-15T02:35:42;7.27;;;2.37;;
20649;SDS011;10484;48.736;9.332;2023-03-15T02:38:07;3.00;;;1.90;;
20649;SDS011;10484;48.736;9.332;2023-03-15T02:40:33;5.83;;;2.23;;
20649;SDS011;10484;48.736;9.332;2023-03-15T02:43:04;3.47;;;2.00;;
20649;SDS011;10484;48.736;9.332;2023-03-15T02:45:32;2.50;;;1.73;;
20649;SDS011;10484;48.736;9.332;2023-03-15T02:48:00;6.45;;;1.90;;
20649;SDS011;10484;48.736;9.332;2023-03-15T02:50:29;2.28;;;2.00;;
20649;SDS011;10484;48.736;9.332;2023-03-15T02:52:55;3.40;;;1.70;;
20649;SDS011;10484;48.736;9.332;2023-03-15T02:55:20;3.23;;;1.90;;
20649;SDS011;10484;48.736;9.332;2023-03-15T02:57:46;2.33;;;2.07;;
20649;SDS011;10484;48.736;9.332;2023-03-15T03:00:12;3.55;;;1.67;;
20649;SDS011;10484;48.736;9.332;2023-03-15T03:02:42;5.03;;;2.42;;
20649;SDS011;10484;48.736;9.332;2023-03-15T03:05:10;2.97;;;1.73;;
20649;SDS011;10484;48.736;9.332;2023-03-15T03:07:37;2.90;;;1.55;;
20649;SDS011;10484;48.736;9.332;2023-03-15T03:10:05;4.67;;;1.70;;
20649;SDS011;10484;48.736;9.332;2023-03-15T03:12:32;3.50;;;1.48;;
20649;SDS011;10484;48.736;9.332;2023-03-15T03:14:57;6.60;;;1.70;;
20649;SDS011;10484;48.736;9.332;2023-03-15T03:17:23;2.37;;;1.20;;
20649;SDS011;10484;48.736;9.332;2023-03-15T03:19:49;4.63;;;1.67;;
20649;SDS011;10484;48.736;9.332;2023-03-15T03:22:15;3.25;;;1.77;;
20649;SDS011;10484;48.736;9.332;2023-03-15T03:24:41;2.87;;;1.70;;
20649;SDS011;10484;48.736;9.332;2023-03-15T03:27:10;4.10;;;1.45;;
20649;SDS011;10484;48.736;9.332;2023-03-15T03:29:41;3.70;;;1.38;;
20649;SDS011;10484;48.736;9.332;2023-03-15T03:32:07;3.50;;;2.00;;
20649;SDS011;10484;48.736;9.332;2023-03-15T03:34:33;8.52;;;1.70;;
20649;SDS011;10484;48.736;9.332;2023-03-15T03:36:59;2.90;;;1.85;;
20649;SDS011;10484;48.736;9.332;2023-03-15T03:39:25;2.33;;;1.67;;
20649;SDS011;10484;48.736;9.332;2023-03-15T03:41:51;1.70;;;1.50;;
20649;SDS011;10484;48.736;9.332;2023-03-15T03:44:17;7.03;;;1.40;;
20649;SDS011;10484;48.736;9.332;2023-03-15T03:46:43;2.95;;;1.50;;
20649;SDS011;10484;48.736;9.332;2023-03-15T03:49:09;4.87;;;1.13;;
20649;SDS011;10484;48.736;9.332;2023-03-15T03:51:34;3.20;;;1.83;;
20649;SDS011;10484;48.736;9.332;2023-03-15T03:54:00;2.40;;;1.00;;
20649;SDS011;10484;48.736;9.332;2023-03-15T03:56:26;1.97;;;1.40;;
20649;SDS011;10484;48.736;9.332;2023-03-15T03:58:52;3.17;;;1.37;;
20649;SDS011;10484;48.736;9.332;2023-03-15T04:01:17;2.50;;;1.37;;
20649;SDS011;10484;48.736;9.332;2023-03-15T04:03:43;1.83;;;1.20;;
20649;SDS011;10484;48.736;9.332;2023-03-15T04:06:09;2.10;;;1.30;;
20649;SDS011;10484;48.736;9.332;2023-03-15T04:08:35;2.97;;;1.37;;
20649;SDS011;10484;48.736;9.332;2023-03-15T04:11:00;1.87;;;0.90;;
20649;SDS011;10484;48.736;9.332;2023-03-15T04:13:29;3.13;;;1.38;;
20649;SDS011;10484;48.736;9.332;2023-03-15T04:15:55;1.90;;;1.00;;
20649;SDS011;10484;48.736;9.332;2023-03-15T04:18:21;2.50;;;1.10;;
20649;SDS011;10484;48.736;9.332;2023-03-15T04:20:47;2.95;;;1.10;;
20649;SDS011;10484;48.736;9.332;2023-03-15T04:23:13;1.27;;;0.80;;
20649;SDS011;10484;48.736;9.332;2023-03-15T04:25:40;4.60;;;1.25;;
20649;SDS011;10484;48.736;9.332;2023-03-15T04:28:06;2.00;;;1.30;;
20649;SDS011;10484;48.736;9.332;2023-03-15T04:30:34;7.10;;;1.30;;
20649;SDS011;10484;48.736;9.332;2023-03-15T04:33:01;4.03;;;1.77;;
20649;SDS011;10484;48.736;9.332;2023-03-15T04:35:32;2.45;;;1.50;;
20649;SDS011;10484;48.736;9.332;2023-03-15T04:37:58;1.33;;;1.23;;
20649;SDS011;10484;48.736;9.332;2023-03-15T04:40:24;2.85;;;1.35;;
20649;SDS011;10484;48.736;9.332;2023-03-15T04:42:51;2.85;;;1.40;;
20649;SDS011;10484;48.736;9.332;2023-03-15T04:45:20;2.70;;;1.70;;
20649;SDS011;10484;48.736;9.332;2023-03-15T04:47:50;2.08;;;1.25;;
20649;SDS011;10484;48.736;9.332;2023-03-15T04:50:16;2.77;;;1.33;;
20649;SDS011;10484;48.736;9.332;2023-03-15T04:52:42;6.40;;;2.50;;
20649;SDS011;10484;48.736;9.332;2023-03-15T04:55:07;3.37;;;2.10;;
20649;SDS011;10484;48.736;9.332;2023-03-15T04:57:33;2.47;;;1.53;;
20649;SDS011;10484;48.736;9.332;2023-03-15T04:59:59;3.17;;;1.60;;
20649;SDS011;10484;48.736;9.332;2023-03-15T05:02:24;5.47;;;1.63;;
20649;SDS011;10484;48.736;9.332;2023-03-15T05:04:50;2.47;;;1.83;;
20649;SDS011;10484;48.736;9.332;2023-03-15T05:07:15;4.70;;;2.13;;
20649;SDS011;10484;48.736;9.332;2023-03-15T05:09:41;2.57;;;1.80;;
20649;SDS011;10484;48.736;9.332;2023-03-15T05:12:10;3.17;;;2.05;;
20649;SDS011;10484;48.736;9.332;2023-03-15T05:14:36;2.05;;;1.70;;
20649;SDS011;10484;48.736;9.332;2023-03-15T05:17:01;3.83;;;2.20;;
20649;SDS011;10484;48.736;9.332;2023-03-15T05:19:28;5.18;;;2.60;;
20649;SDS011;10484;48.736;9.332;2023-03-15T05:21:53;4.87;;;2.00;;
20649;SDS011;10484;48.736;9.332;2023-03-15T05:24:20;5.37;;;1.80;;
20649;SDS011;10484;48.736;9.332;2023-03-15T05:26:46;5.50;;;2.38;;
20649;SDS011;10484;48.736;9.332;2023-03-15T05:29:12;3.63;;;1.63;;
20649;SDS011;10484;48.736;9.332;2023-03-15T05:31:38;4.40;;;2.00;;
20649;SDS011;10484;48.736;9.332;2023-03-15T05:34:04;1.87;;;1.53;;
20649;SDS011;10484;48.736;9.332;2023-03-15T05:36:30;6.18;;;2.00;;
20649;SDS011;10484;48.736;9.332;2023-03-15T05:38:57;3.00;;;2.25;;
20649;SDS011;10484;48.736;9.332;2023-03-15T05:41:23;8.10;;;2.07;;
20649;SDS011;10484;48.736;9.332;2023-03-15T05:43:49;4.27;;;2.30;;
20649;SDS011;10484;48.736;9.332;2023-03-15T05:46:15;3.20;;;2.03;;
20649;SDS011;10484;48.736;9.332;2023-03-15T05:48:41;4.30;;;1.90;;
20649;SDS011;10484;48.736;9.332;2023-03-15T05:51:07;5.90;;;1.93;;
20649;SDS011;10484;48.736;9.332;2023-03-15T05:53:32;3.83;;;1.50;;
20649;SDS011;10484;48.736;9.332;2023-03-15T05:55:58;5.07;;;2.40;;
20649;SDS011;10484;48.736;9.332;2023-03-15T05:58:24;3.43;;;1.10;;
20649;SDS011;10484;48.736;9.332;2023-03-15T06:00:49;13.63;;;1.90;;
20649;SDS011;10484;48.736;9.332;2023-03-15T06:03:15;6.10;;;1.83;;
20649;SDS011;10484;48.736;9.332;2023-03-15T06:05:41;2.00;;;1.70;;
20649;SDS011;10484;48.736;9.332;2023-03-15T06:08:07;2.35;;;1.45;;
20649;SDS011;10484;48.736;9.332;2023-03-15T06:10:32;4.47;;;2.23;;
20649;SDS011;10484;48.736;9.332;2023-03-15T06:12:58;3.10;;;1.53;;
20649;SDS011;10484;48.736;9.332;2023-03-15T06:15:24;5.27;;;2.00;;
20649;SDS011;10484;48.736;9.332;2023-03-15T06:17:50;4.63;;;1.95;;
20649;SDS011;10484;48.736;9.332;2023-03-15T06:20:15;2.53;;;1.80;;
20649;SDS011;10484;48.736;9.332;2023-03-15T06:22:42;2.58;;;1.70;;
20649;SDS011;10484;48.736;9.332;2023-03-15T06:25:08;3.23;;;1.67;;
20649;SDS011;10484;48.736;9.332;2023-03-15T06:27:34;3.70;;;1.85;;
20649;SDS011;10484;48.736;9.332;2023-03-15T06:30:00;2.05;;;1.63;;
20649;SDS011;10484;48.736;9.332;2023-03-15T06:32:26;3.43;;;1.57;;
20649;SDS011;10484;48.736;9.332;2023-03-15T06:34:51;3.73;;;1.90;;
20649;SDS011;10484;48.736;9.332;2023-03-15T06:37:17;4.40;;;2.00;;
20649;SDS011;10484;48.736;9.332;2023-03-15T06:39:42;3.23;;;2.33;;
20649;SDS011;10484;48.736;9.332;2023-03-15T06:42:09;6.93;;;2.15;;
20649;SDS011;10484;48.736;9.332;2023-03-15T06:44:38;2.92;;;2.45;;
20649;SDS011;10484;48.736;9.332;2023-03-15T06:47:04;5.00;;;2.47;;
20649;SDS011;10484;48.736;9.332;2023-03-15T06:49:30;7.40;;;2.72;;
20649;SDS011;10484;48.736;9.332;2023-03-15T06:51:56;4.10;;;2.63;;
20649;SDS011;10484;48.736;9.332;2023-03-15T06:54:22;3.47;;;2.70;;
20649;SDS011;10484;48.736;9.332;2023-03-15T06:56:48;3.37;;;2.20;;
20649;SDS011;10484;48.736;9.332;2023-03-15T06:59:13;6.17;;;2.77;;
20649;SDS011;10484;48.736;9.332;2023-03-15T07:01:39;5.93;;;2.63;;
20649;SDS011;10484;48.736;9.332;2023-03-15T07:04:05;9.10;;;3.57;;
20649;SDS011;10484;48.736;9.332;2023-03-15T07:06:31;6.90;;;3.30;;
20649;SDS011;10484;48.736;9.332;2023-03-15T07:08:57;6.15;;;3.17;;
20649;SDS011;10484;48.736;9.332;2023-03-15T07:11:22;5.20;;;2.90;;
20649;SDS011;10484;48.736;9.332;2023-03-15T07:13:48;4.90;;;2.80;;
20649;SDS011;10484;48.736;9.332;2023-03-15T07:16:14;4.93;;;3.53;;
20649;SDS011;10484;48.736;9.332;2023-03-15T07:18:39;9.73;;;2.90;;
20649;SDS011;10484;48.736;9.332;2023-03-15T07:21:05;5.20;;;3.60;;
20649;SDS011;10484;48.736;9.332;2023-03-15T07:23:32;5.90;;;3.10;;
20649;SDS011;10484;48.736;9.332;2023-03-15T07:25:58;5.63;;;3.30;;
20649;SDS011;10484;48.736;9.332;2023-03-15T07:28:24;3.97;;;2.93;;
20649;SDS011;10484;48.736;9.332;2023-03-15T07:30:51;5.60;;;2.88;;
20649;SDS011;10484;48.736;9.332;2023-03-15T07:33:27;3.53;;;2.40;;
20649;SDS011;10484;48.736;9.332;2023-03-15T07:35:54;5.40;;;2.80;;
20649;SDS011;10484;48.736;9.332;2023-03-15T07:38:23;4.10;;;2.13;;
20649;SDS011;10484;48.736;9.332;2023-03-15T07:40:52;2.97;;;2.60;;
20649;SDS011;10484;48.736;9.332;2023-03-15T07:43:18;6.30;;;2.93;;
20649;SDS011;10484;48.736;9.332;2023-03-15T07:45:44;5.57;;;2.58;;
20649;SDS011;10484;48.736;9.332;2023-03-15T07:48:10;10.40;;;3.53;;
20649;SDS011;10484;48.736;9.332;2023-03-15T07:50:36;9.17;;;2.07;;
20649;SDS011;10484;48.736;9.332;2023-03-15T07:53:02;3.00;;;1.60;;
20649;SDS011;10484;48.736;9.332;2023-03-15T07:55:28;4.30;;;2.00;;
20649;SDS011;10484;48.736;9.332;2023-03-15T07:57:53;3.63;;;1.73;;
20649;SDS011;10484;48.736;9.332;2023-03-15T08:00:19;3.83;;;1.70;;
20649;SDS011;10484;48.736;9.332;2023-03-15T08:02:45;7.50;;;2.10;;
20649;SDS011;10484;48.736;9.332;2023-03-15T08:05:11;2.53;;;0.97;;
20649;SDS011;10484;48.736;9.332;2023-03-15T08:07:37;2.53;;;1.43;;
20649;SDS011;10484;48.736;9.332;2023-03-15T08:10:02;2.00;;;1.30;;
20649;SDS011;10484;48.736;9.332;2023-03-15T08:12:30;1.42;;;1.05;;
20649;SDS011;10484;48.736;9.332;2023-03-15T08:14:57;2.00;;;1.30;;
20649;SDS011;10484;48.736;9.332;2023-03-15T08:17:22;3.33;;;1.80;;
20649;SDS011;10484;48.736;9.332;2023-03-15T08:19:48;9.57;;;1.97;;
20649;SDS011;10484;48.736;9.332;2023-03-15T08:22:14;2.50;;;1.23;;
20649;SDS011;10484;48.736;9.332;2023-03-15T08:24:40;4.07;;;1.10;;
20649;SDS011;10484;48.736;9.332;2023-03-15T08:27:06;2.83;;;1.30;;
20649;SDS011;10484;48.736;9.332;2023-03-15T08:29:32;3.63;;;1.10;;
20649;SDS011;10484;48.736;9.332;2023-03-15T08:31:57;4.17;;;1.07;;
20649;SDS011;10484;48.736;9.332;2023-03-15T08:34:23;2.17;;;1.03;;
20649;SDS011;10484;48.736;9.332;2023-03-15T08:36:49;2.90;;;1.30;;
20649;SDS011;10484;48.736;9.332;2023-03-15T08:39:15;2.40;;;1.40;;
20649;SDS011;10484;48.736;9.332;2023-03-15T08:41:41;4.07;;;1.20;;
20649;SDS011;10484;48.736;9.332;2023-03-15T08:44:07;4.90;;;1.40;;
20649;SDS011;10484;48.736;9.332;2023-03-15T08:46:33;3.25;;;0.90;;
20649;SDS011;10484;48.736;9.332;2023-03-15T08:48:59;5.83;;;1.10;;
20649;SDS011;10484;48.736;9.332;2023-03-15T08:51:25;3.45;;;1.20;;
20649;SDS011;10484;48.736;9.332;2023-03-15T08:53:52;1.02;;;0.80;;
20649;SDS011;10484;48.736;9.332;2023-03-15T08:56:18;3.10;;;1.40;;
20649;SDS011;10484;48.736;9.332;2023-03-15T08:58:44;2.10;;;1.10;;
20649;SDS011;10484;48.736;9.332;2023-03-15T09:01:10;1.20;;;1.10;;
20649;SDS011;10484;48.736;9.332;2023-03-15T09:03:36;4.20;;;1.10;;
20649;SDS011;10484;48.736;9.332;2023-03-15T09:06:01;3.63;;;1.57;;
20649;SDS011;10484;48.736;9.332;2023-03-15T09:08:27;1.90;;;1.10;;
20649;SDS011;10484;48.736;9.332;2023-03-15T09:10:53;1.50;;;0.80;;
20649;SDS011;10484;48.736;9.332;2023-03-15T09:13:20;2.77;;;1.10;;
20649;SDS011;10484;48.736;9.332;2023-03-15T09:15:48;4.17;;;1.37;;
20649;SDS011;10484;48.736;9.332;2023-03-15T09:18:18;2.20;;;1.07;;
20649;SDS011;10484;48.736;9.332;2023-03-15T09:20:44;2.50;;;1.10;;
20649;SDS011;10484;48.736;9.332;2023-03-15T09:23:10;1.37;;;0.67;;
20649;SDS011;10484;48.736;9.332;2023-03-15T09:25:36;2.10;;;1.20;;
20649;SDS011;10484;48.736;9.332;2023-03-15T09:28:02;4.13;;;1.53;;
20649;SDS011;10484;48.736;9.332;2023-03-15T09:30:33;4.17;;;1.27;;
20649;SDS011;10484;48.736;9.332;2023-03-15T09:32:59;1.53;;;1.20;;
20649;SDS011;10484;48.736;9.332;2023-03-15T09:35:25;2.73;;;1.10;;
20649;SDS011;10484;48.736;9.332;2023-03-15T09:37:50;1.80;;;0.67;;
20649;SDS011;10484;48.736;9.332;2023-03-15T09:40:18;2.20;;;0.97;;
20649;SDS011;10484;48.736;9.332;2023-03-15T09:48:43;2.20;;;0.57;;
20649;SDS011;10484;48.736;9.332;2023-03-15T09:51:15;1.87;;;0.83;;
20649;SDS011;10484;48.736;9.332;2023-03-15T09:54:15;1.63;;;0.80;;
20649;SDS011;10484;48.736;9.332;2023-03-15T09:56:57;5.72;;;1.05;;
20649;SDS011;10484;48.736;9.332;2023-03-15T09:59:33;2.65;;;1.48;;
20649;SDS011;10484;48.736;9.332;2023-03-15T10:02:03;3.55;;;1.10;;
20649;SDS011;10484;48.736;9.332;2023-03-15T10:04:43;4.05;;;1.33;;
20649;SDS011;10484;48.736;9.332;2023-03-15T10:07:12;1.77;;;1.15;;
20649;SDS011;10484;48.736;9.332;2023-03-15T10:09:40;3.15;;;1.23;;
20649;SDS011;10484;48.736;9.332;2023-03-15T10:12:24;1.08;;;1.08;;
20649;SDS011;10484;48.736;9.332;2023-03-15T10:20:32;3.30;;;1.17;;
20649;SDS011;10484;48.736;9.332;2023-03-15T10:23:06;2.97;;;1.00;;
20649;SDS011;10484;48.736;9.332;2023-03-15T10:25:39;1.70;;;0.90;;
20649;SDS011;10484;48.736;9.332;2023-03-15T10:30:44;1.63;;;1.07;;
20649;SDS011;10484;48.736;9.332;2023-03-15T10:33:22;2.23;;;0.97;;
20649;SDS011;10484;48.736;9.332;2023-03-15T10:35:56;1.90;;;0.98;;
20649;SDS011;10484;48.736;9.332;2023-03-15T10:38:22;2.30;;;1.10;;
20649;SDS011;10484;48.736;9.332;2023-03-15T10:40:49;1.77;;;1.05;;
20649;SDS011;10484;48.736;9.332;2023-03-15T10:46:01;2.45;;;0.75;;
20649;SDS011;10484;48.736;9.332;2023-03-15T10:48:31;3.67;;;1.00;;
20649;SDS011;10484;48.736;9.332;2023-03-15T10:51:03;1.00;;;0.83;;
20649;SDS011;10484;48.736;9.332;2023-03-15T10:59:27;3.97;;;0.90;;
20649;SDS011;10484;48.736;9.332;2023-03-15T11:04:41;5.55;;;1.02;;
20649;SDS011;10484;48.736;9.332;2023-03-15T11:07:08;1.30;;;0.80;;
20649;SDS011;10484;48.736;9.332;2023-03-15T11:09:41;2.67;;;0.70;;
20649;SDS011;10484;48.736;9.332;2023-03-15T11:12:09;2.93;;;0.73;;
20649;SDS011;10484;48.736;9.332;2023-03-15T11:14:44;1.70;;;0.60;;
20649;SDS011;10484;48.736;9.332;2023-03-15T11:17:20;0.80;;;0.60;;
20649;SDS011;10484;48.736;9.332;2023-03-15T11:19:52;1.63;;;0.77;;
20649;SDS011;10484;48.736;9.332;2023-03-15T11:22:21;4.27;;;0.93;;
20649;SDS011;10484;48.736;9.332;2023-03-15T11:24:47;1.10;;;0.63;;
20649;SDS011;10484;48.736;9.332;2023-03-15T11:27:14;0.80;;;0.50;;
20649;SDS011;10484;48.736;9.332;2023-03-15T11:29:42;3.80;;;1.57;;
20649;SDS011;10484;48.736;9.332;2023-03-15T11:32:23;1.40;;;0.50;;
20649;SDS011;10484;48.736;9.332;2023-03-15T11:35:06;0.73;;;0.73;;
20649;SDS011;10484;48.736;9.332;2023-03-15T11:37:59;1.33;;;0.60;;
20649;SDS011;10484;48.736;9.332;2023-03-15T11:40:32;0.70;;;0.43;;
20649;SDS011;10484;48.736;9.332;2023-03-15T11:42:59;1.00;;;0.70;;
20649;SDS011;10484;48.736;9.332;2023-03-15T11:48:27;0.80;;;0.57;;
20649;SDS011;10484;48.736;9.332;2023-03-15T11:51:09;1.80;;;0.50;;
20649;SDS011;10484;48.736;9.332;2023-03-15T11:53:37;2.80;;;0.70;;
20649;SDS011;10484;48.736;9.332;2023-03-15T11:56:18;4.00;;;0.90;;
20649;SDS011;10484;48.736;9.332;2023-03-15T11:59:09;1.20;;;0.60;;
20649;SDS011;10484;48.736;9.332;2023-03-15T12:01:37;0.80;;;0.50;;
20649;SDS011;10484;48.736;9.332;2023-03-15T12:04:27;2.20;;;0.43;;
20649;SDS011;10484;48.736;9.332;2023-03-15T12:07:04;1.23;;;0.50;;
20649;SDS011;10484;48.736;9.332;2023-03-15T12:09:37;1.30;;;0.47;;
20649;SDS011;10484;48.736;9.332;2023-03-15T12:15:04;2.67;;;0.77;;
20649;SDS011;10484;48.736;9.332;2023-03-15T12:22:36;6.43;;;1.10;;
20649;SDS011;10484;48.736;9.332;2023-03-15T12:25:15;2.30;;;0.67;;
20649;SDS011;10484;48.736;9.332;2023-03-15T12:27:54;2.23;;;0.70;;
20649;SDS011;10484;48.736;9.332;2023-03-15T12:30:29;4.60;;;1.50;;
20649;SDS011;10484;48.736;9.332;2023-03-15T12:32:57;1.23;;;0.50;;
20649;SDS011;10484;48.736;9.332;2023-03-15T12:35:27;0.90;;;0.50;;
20649;SDS011;10484;48.736;9.332;2023-03-15T12:37:57;2.30;;;0.60;;
20649;SDS011;10484;48.736;9.332;2023-03-15T12:40:36;1.70;;;0.80;;
20649;SDS011;10484;48.736;9.332;2023-03-15T12:43:04;2.33;;;0.67;;
20649;SDS011;10484;48.736;9.332;2023-03-15T12:45:34;1.53;;;0.53;;
20649;SDS011;10484;48.736;9.332;2023-03-15T12:53:15;1.40;;;0.60;;
20649;SDS011;10484;48.736;9.332;2023-03-15T12:59:11;0.60;;;0.50;;
20649;SDS011;10484;48.736;9.332;2023-03-15T13:01:41;2.07;;;0.60;;
20649;SDS011;10484;48.736;9.332;2023-03-15T13:04:07;1.13;;;0.60;;
20649;SDS011;10484;48.736;9.332;2023-03-15T13:12:12;2.57;;;0.50;;
20649;SDS011;10484;48.736;9.332;2023-03-15T13:15:02;1.67;;;0.70;;
20649;SDS011;10484;48.736;9.332;2023-03-15T13:23:24;2.07;;;0.83;;
20649;SDS011;10484;48.736;9.332;2023-03-15T13:28:59;2.57;;;1.13;;
20649;SDS011;10484;48.736;9.332;2023-03-15T13:31:30;3.07;;;1.20;;
20649;SDS011;10484;48.736;9.332;2023-03-15T13:33:56;2.37;;;0.67;;
20649;SDS011;10484;48.736;9.332;2023-03-15T13:39:26;7.53;;;1.03;;
20649;SDS011;10484;48.736;9.332;2023-03-15T13:42:00;1.17;;;0.63;;
20649;SDS011;10484;48.736;9.332;2023-03-15T13:44:43;2.60;;;1.03;;
20649;SDS011;10484;48.736;9.332;2023-03-15T13:47:08;2.50;;;0.70;;
20649;SDS011;10484;48.736;9.332;2023-03-15T13:49:44;2.08;;;0.90;;
20649;SDS011;10484;48.736;9.332;2023-03-15T13:52:10;1.00;;;0.90;;
20649;SDS011;10484;48.736;9.332;2023-03-15T13:54:38;2.47;;;0.80;;
20649;SDS011;10484;48.736;9.332;2023-03-15T13:57:06;1.90;;;0.83;;
20649;SDS011;10484;48.736;9.332;2023-03-15T14:02:10;3.03;;;0.57;;
20649;SDS011;10484;48.736;9.332;2023-03-15T14:04:40;1.43;;;0.80;;
20649;SDS011;10484;48.736;9.332;2023-03-15T14:07:20;3.07;;;1.33;;
20649;SDS011;10484;48.736;9.332;2023-03-15T14:09:48;1.20;;;1.00;;
20649;SDS011;10484;48.736;9.332;2023-03-15T14:12:30;2.40;;;0.90;;
20649;SDS011;10484;48.736;9.332;2023-03-15T14:14:57;3.70;;;1.07;;
20649;SDS011;10484;48.736;9.332;2023-03-15T14:19:51;2.47;;;1.17;;
20649;SDS011;10484;48.736;9.332;2023-03-15T14:22:20;4.37;;;1.20;;
20649;SDS011;10484;48.736;9.332;2023-03-15T14:24:47;2.30;;;1.13;;
20649;SDS011;10484;48.736;9.332;2023-03-15T14:27:16;2.17;;;0.93;;
20649;SDS011;10484;48.736;9.332;2023-03-15T14:29:56;1.53;;;0.80;;
20649;SDS011;10484;48.736;9.332;2023-03-15T14:32:28;2.10;;;1.00;;
20649;SDS011;10484;48.736;9.332;2023-03-15T14:37:46;2.50;;;0.70;;
20649;SDS011;10484;48.736;9.332;2023-03-15T14:40:17;3.15;;;0.88;;
20649;SDS011;10484;48.736;9.332;2023-03-15T14:42:45;2.30;;;1.13;;
20649;SDS011;10484;48.736;9.332;2023-03-15T14:45:12;1.10;;;0.80;;
20649;SDS011;10484;48.736;9.332;2023-03-15T14:47:43;0.80;;;0.80;;
20649;SDS011;10484;48.736;9.332;2023-03-15T14:50:13;1.67;;;1.13;;
20649;SDS011;10484;48.736;9.332;2023-03-15T14:52:41;3.07;;;1.10;;
20649;SDS011;10484;48.736;9.332;2023-03-15T14:55:13;2.50;;;0.80;;
20649;SDS011;10484;48.736;9.332;2023-03-15T14:57:41;1.20;;;0.70;;
20649;SDS011;10484;48.736;9.332;2023-03-15T15:00:07;1.40;;;0.90;;
20649;SDS011;10484;48.736;9.332;2023-03-15T15:02:43;1.17;;;0.80;;
20649;SDS011;10484;48.736;9.332;2023-03-15T15:05:22;1.20;;;0.80;;
20649;SDS011;10484;48.736;9.332;2023-03-15T15:07:50;3.20;;;0.67;;
20649;SDS011;10484;48.736;9.332;2023-03-15T15:10:21;1.43;;;0.80;;
20649;SDS011;10484;48.736;9.332;2023-03-15T15:12:48;0.80;;;0.73;;
20649;SDS011;10484;48.736;9.332;2023-03-15T15:15:14;0.60;;;0.60;;
20649;SDS011;10484;48.736;9.332;2023-03-15T15:17:41;0.90;;;0.90;;
20649;SDS011;10484;48.736;9.332;2023-03-15T15:20:07;1.60;;;1.03;;
20649;SDS011;10484;48.736;9.332;2023-03-15T15:22:35;1.87;;;0.90;;
20649;SDS011;10484;48.736;9.332;2023-03-15T15:25:02;2.10;;;0.80;;
20649;SDS011;10484;48.736;9.332;2023-03-15T15:27:37;0.60;;;0.53;;
20649;SDS011;10484;48.736;9.332;2023-03-15T15:30:02;4.30;;;0.73;;
20649;SDS011;10484;48.736;9.332;2023-03-15T15:32:29;4.23;;;0.93;;
20649;SDS011;10484;48.736;9.332;2023-03-15T15:34:57;1.53;;;0.80;;
20649;SDS011;10484;48.736;9.332;2023-03-15T15:37:23;0.53;;;0.53;;
20649;SDS011;10484;48.736;9.332;2023-03-15T15:39:50;1.80;;;0.60;;
20649;SDS011;10484;48.736;9.332;2023-03-15T15:42:15;3.33;;;0.60;;
20649;SDS011;10484;48.736;9.332;2023-03-15T15:44:41;2.20;;;0.57;;
20649;SDS011;10484;48.736;9.332;2023-03-15T15:47:09;1.20;;;0.70;;
20649;SDS011;10484;48.736;9.332;2023-03-15T15:49:35;3.87;;;1.20;;
20649;SDS011;10484;48.736;9.332;2023-03-15T15:52:01;2.17;;;1.30;;
20649;SDS011;10484;48.736;9.332;2023-03-15T15:54:28;2.30;;;1.10;;
20649;SDS011;10484;48.736;9.332;2023-03-15T15:56:56;2.78;;;1.10;;
20649;SDS011;10484;48.736;9.332;2023-03-15T15:59:23;1.47;;;0.97;;
20649;SDS011;10484;48.736;9.332;2023-03-15T16:01:49;1.63;;;1.35;;
20649;SDS011;10484;48.736;9.332;2023-03-15T16:04:16;2.40;;;1.40;;
20649;SDS011;10484;48.736;9.332;2023-03-15T16:06:42;1.50;;;1.40;;
20649;SDS011;10484;48.736;9.332;2023-03-15T16:09:12;1.53;;;1.43;;
20649;SDS011;10484;48.736;9.332;2023-03-15T16:11:38;1.20;;;1.10;;
20649;SDS011;10484;48.736;9.332;2023-03-15T16:14:04;1.40;;;1.00;;